createdAt,value
2023-02-14T00:01:10.236Z,11.85
2023-02-14T00:04:12.270Z,11.27
2023-02-14T00:07:13.993Z,11.48
2023-02-14T00:10:15.594Z,11.45
2023-02-14T00:13:17.073Z,10.27
2023-02-14T00:16:18.550Z,10.40
2023-02-14T00:19:21.240Z,11.55
2023-02-14T00:22:22.785Z,10.75
2023-02-14T00:25:24.316Z,10.18
2023-02-14T00:28:25.820Z,10.32
2023-02-14T00:31:27.441Z,10.35
2023-02-14T00:34:30.116Z,9.98
2023-02-14T00:41:09.799Z,10.20
2023-02-14T00:44:12.684Z,8.60
2023-02-14T00:47:14.209Z,9.52
2023-02-14T00:50:15.988Z,8.65
2023-02-14T00:53:17.521Z,9.00
2023-02-14T00:56:19.787Z,9.32
2023-02-14T00:59:21.349Z,10.18
2023-02-14T01:02:22.950Z,8.82
2023-02-14T01:05:26.081Z,9.80
2023-02-14T01:08:27.595Z,9.18
2023-02-14T01:11:30.322Z,9.02
2023-02-14T01:14:32.103Z,8.90
2023-02-14T01:17:33.674Z,8.93
2023-02-14T01:20:35.942Z,8.52
2023-02-14T01:23:37.493Z,7.57
2023-02-14T01:26:39.612Z,8.65
2023-02-14T01:29:41.209Z,8.13
2023-02-14T01:32:42.904Z,7.68
2023-02-14T01:35:46.174Z,8.20
2023-02-14T01:38:55.375Z,8.23
2023-02-14T01:41:58.024Z,8.80
2023-02-14T01:45:03.290Z,7.70
2023-02-14T01:48:07.397Z,8.18
2023-02-14T01:51:08.905Z,8.35
2023-02-14T01:54:11.722Z,9.38
2023-02-14T01:57:17.354Z,8.80
2023-02-14T02:00:37.872Z,7.95
2023-02-14T02:03:49.267Z,7.22
2023-02-14T02:06:59.774Z,7.50
2023-02-14T02:10:05.540Z,8.00
2023-02-14T02:16:24.749Z,7.05
2023-02-14T02:19:53.974Z,7.40
2023-02-14T02:23:01.240Z,7.55
2023-02-14T02:26:40.377Z,7.25
2023-02-14T02:30:19.729Z,7.57
2023-02-14T02:33:39.978Z,7.28
2023-02-14T02:36:54.507Z,7.40
2023-02-14T02:40:12.712Z,7.07
2023-02-14T02:43:36.880Z,6.65
2023-02-14T02:47:23.843Z,7.30
2023-02-14T02:50:47.281Z,6.85
2023-02-14T02:53:59.046Z,6.93
2023-02-14T02:57:03.861Z,7.85
2023-02-14T03:00:07.628Z,7.20
2023-02-14T03:03:29.320Z,7.22
2023-02-14T03:06:31.942Z,7.25
2023-02-14T03:09:41.473Z,7.07
2023-02-14T03:13:05.977Z,6.47
2023-02-14T03:16:23.708Z,6.38
2023-02-14T03:20:00.549Z,5.63
2023-02-14T03:23:18.929Z,6.00
2023-02-14T03:26:27.273Z,6.00
2023-02-14T03:29:41.360Z,6.15
2023-02-14T03:33:05.439Z,6.30
2023-02-14T03:36:13.046Z,6.05
2023-02-14T03:39:29.273Z,6.43
2023-02-14T03:42:46.249Z,6.50
2023-02-14T03:46:34.898Z,6.47
2023-02-14T03:49:42.882Z,6.35
2023-02-14T03:52:46.568Z,6.50
2023-02-14T03:55:57.662Z,6.40
2023-02-14T03:59:06.073Z,6.38
2023-02-14T04:02:13.858Z,6.35
2023-02-14T04:05:25.788Z,6.05
2023-02-14T04:08:29.065Z,5.60
2023-02-14T04:11:35.073Z,5.57
2023-02-14T04:14:36.732Z,5.60
2023-02-14T04:17:57.459Z,5.50
2023-02-14T04:21:00.414Z,5.40
2023-02-14T04:24:02.103Z,6.00
2023-02-14T04:27:10.126Z,4.97
2023-02-14T04:30:12.576Z,5.38
2023-02-14T04:33:14.119Z,5.63
2023-02-14T04:36:15.616Z,5.63
2023-02-14T04:39:17.066Z,5.43
2023-02-14T04:42:18.565Z,6.25
2023-02-14T04:45:20.284Z,5.40
2023-02-14T04:48:21.789Z,5.03
2023-02-14T04:51:23.311Z,4.93
2023-02-14T04:54:25.223Z,5.43
2023-02-14T04:57:26.755Z,5.50
2023-02-14T05:00:28.284Z,5.50
2023-02-14T05:03:29.815Z,5.00
2023-02-14T05:06:31.618Z,4.55
2023-02-14T05:09:33.329Z,5.20
2023-02-14T05:12:34.848Z,5.75
2023-02-14T05:15:38.381Z,5.22
2023-02-14T05:18:40.474Z,5.07
2023-02-14T05:21:41.915Z,5.05
2023-02-14T05:24:43.505Z,5.47
2023-02-14T05:27:44.958Z,5.72
2023-02-14T05:30:46.868Z,6.28
2023-02-14T05:33:48.553Z,5.47
2023-02-14T05:36:50.225Z,5.78
2023-02-14T05:39:51.748Z,5.32
2023-02-14T05:42:53.831Z,5.35
2023-02-14T05:45:55.394Z,5.35
2023-02-14T05:48:56.958Z,4.95
2023-02-14T05:51:58.458Z,5.78
2023-02-14T05:54:59.923Z,5.22
2023-02-14T05:58:01.539Z,5.15
2023-02-14T06:01:03.207Z,5.40
2023-02-14T06:04:04.954Z,5.30
2023-02-14T06:07:06.568Z,5.93
2023-02-14T06:10:09.914Z,5.45
2023-02-14T06:13:11.393Z,6.00
2023-02-14T06:16:12.969Z,5.68
2023-02-14T06:19:14.437Z,7.78
2023-02-14T06:22:16.204Z,8.93
2023-02-14T06:25:17.733Z,8.23
2023-02-14T06:28:19.263Z,7.13
2023-02-14T06:31:21.291Z,6.03
2023-02-14T06:34:22.859Z,5.50
2023-02-14T06:37:24.379Z,6.05
2023-02-14T06:40:25.908Z,5.95
2023-02-14T06:43:27.365Z,5.63
2023-02-14T06:46:28.998Z,6.50
2023-02-14T06:49:30.546Z,5.85
2023-02-14T06:52:33.367Z,8.30
2023-02-14T06:55:34.885Z,6.55
2023-02-14T06:58:36.570Z,6.85
2023-02-14T07:01:38.201Z,6.53
2023-02-14T07:04:39.784Z,6.60
2023-02-14T07:07:41.368Z,6.20
2023-02-14T07:10:42.912Z,5.85
2023-02-14T07:13:44.405Z,5.93
2023-02-14T07:16:45.934Z,5.72
2023-02-14T07:19:47.428Z,5.90
2023-02-14T07:22:48.917Z,5.75
2023-02-14T07:25:50.433Z,5.25
2023-02-14T07:28:52.102Z,5.65
2023-02-14T07:31:53.856Z,5.00
2023-02-14T07:34:55.472Z,4.80
2023-02-14T07:37:56.990Z,5.03
2023-02-14T07:40:58.820Z,4.97
2023-02-14T07:44:00.589Z,5.50
2023-02-14T07:47:02.187Z,5.35
2023-02-14T07:50:03.962Z,5.85
2023-02-14T07:53:05.540Z,6.53
2023-02-14T07:56:07.159Z,7.05
2023-02-14T07:59:08.681Z,8.07
2023-02-14T08:02:12.599Z,6.85
2023-02-14T08:05:16.026Z,7.82
2023-02-14T08:08:17.536Z,7.90
2023-02-14T08:11:37.422Z,7.90
2023-02-14T08:14:39.446Z,7.40
2023-02-14T08:17:40.928Z,7.82
2023-02-14T08:20:42.445Z,7.68
2023-02-14T08:23:45.592Z,8.10
2023-02-14T08:26:48.147Z,8.90
2023-02-14T08:29:49.658Z,8.95
2023-02-14T08:32:51.218Z,8.20
2023-02-14T08:35:52.862Z,8.65
2023-02-14T08:38:55.262Z,7.45
2023-02-14T08:41:56.785Z,7.65
2023-02-14T08:44:58.289Z,8.32
2023-02-14T08:48:05.521Z,8.57
2023-02-14T08:51:09.041Z,8.45
2023-02-14T08:54:10.555Z,9.20
2023-02-14T08:57:12.105Z,7.15
2023-02-14T09:00:14.260Z,7.15
2023-02-14T09:03:15.780Z,8.50
2023-02-14T09:06:17.817Z,9.20
2023-02-14T09:09:19.561Z,9.90
2023-02-14T09:16:56.154Z,8.05
2023-02-14T09:19:57.895Z,8.18
2023-02-14T09:22:59.477Z,8.35
2023-02-14T09:26:06.610Z,8.48
2023-02-14T09:29:08.359Z,9.00
2023-02-14T09:32:10.073Z,9.52
2023-02-14T09:35:11.639Z,9.90
2023-02-14T09:38:19.282Z,13.10
2023-02-14T09:41:29.684Z,19.23
2023-02-14T09:44:37.292Z,21.65
2023-02-14T09:48:03.818Z,24.40
2023-02-14T09:51:15.220Z,24.27
2023-02-14T09:54:26.186Z,25.42
2023-02-14T09:58:04.796Z,28.63
2023-02-14T10:01:19.068Z,28.23
2023-02-14T10:04:36.439Z,25.63
2023-02-14T10:07:42.717Z,24.00
2023-02-14T10:10:47.924Z,25.63
2023-02-14T10:13:56.325Z,25.20
2023-02-14T10:17:16.924Z,26.92
2023-02-14T10:20:31.364Z,25.45
2023-02-14T10:27:02.045Z,28.70
2023-02-14T10:30:13.554Z,28.55
2023-02-14T10:33:19.550Z,26.17
2023-02-14T10:36:20.988Z,27.25
2023-02-14T10:39:30.530Z,27.23
2023-02-14T10:42:34.708Z,27.98
2023-02-14T10:49:20.155Z,26.45
2023-02-14T10:52:29.317Z,25.33
2023-02-14T10:55:43.948Z,25.50
2023-02-14T10:58:48.690Z,24.80
2023-02-14T11:01:53.216Z,27.08
2023-02-14T11:04:54.934Z,26.08
2023-02-14T11:07:59.039Z,26.33
2023-02-14T11:11:24.214Z,26.08
2023-02-14T11:14:35.848Z,27.60
2023-02-14T11:17:38.054Z,27.50
2023-02-14T11:20:39.614Z,25.92
2023-02-14T11:23:46.003Z,24.58
2023-02-14T11:26:49.943Z,26.23
2023-02-14T11:29:54.351Z,27.40
2023-02-14T11:32:56.260Z,25.40
2023-02-14T11:35:58.638Z,25.90
2023-02-14T11:39:28.313Z,25.08
2023-02-14T11:42:38.757Z,25.35
2023-02-14T11:45:43.093Z,25.38
2023-02-14T11:49:02.052Z,26.05
2023-02-14T11:52:15.703Z,24.20
2023-02-14T11:55:29.489Z,24.90
2023-02-14T11:58:33.245Z,23.88
2023-02-14T12:01:38.561Z,26.85
2023-02-14T12:04:46.630Z,26.30
2023-02-14T12:07:52.615Z,24.50
2023-02-14T12:11:19.839Z,25.35
2023-02-14T12:14:23.338Z,25.23
2023-02-14T12:17:34.067Z,23.48
2023-02-14T12:20:42.559Z,24.73
2023-02-14T12:23:55.840Z,25.80
2023-02-14T12:27:03.122Z,25.73
2023-02-14T12:30:14.215Z,25.45
2023-02-14T12:33:19.947Z,24.15
2023-02-14T12:36:56.364Z,23.88
2023-02-14T12:40:41.391Z,24.50
2023-02-14T12:43:47.957Z,26.77
2023-02-14T12:47:02.333Z,25.90
2023-02-14T12:50:16.722Z,26.98
2023-02-14T12:53:48.062Z,24.55
2023-02-14T12:57:14.137Z,26.63
2023-02-14T13:00:45.128Z,26.48
2023-02-14T13:04:05.058Z,27.55
2023-02-14T13:07:15.798Z,26.25
2023-02-14T13:10:49.707Z,22.27
2023-02-14T13:14:20.494Z,25.55
2023-02-14T13:17:40.825Z,26.13
2023-02-14T13:20:50.517Z,25.33
2023-02-14T13:23:59.087Z,27.67
2023-02-14T13:27:04.830Z,26.13
2023-02-14T13:30:36.986Z,27.20
2023-02-14T13:33:43.494Z,26.48
2023-02-14T13:36:46.280Z,26.48
2023-02-14T13:39:55.477Z,27.02
2023-02-14T13:42:59.456Z,26.75
2023-02-14T13:46:01.029Z,25.98
2023-02-14T13:49:30.698Z,28.27
2023-02-14T13:52:58.630Z,26.58
2023-02-14T13:56:01.437Z,26.73
2023-02-14T13:59:06.253Z,28.73
2023-02-14T14:02:31.071Z,27.45
2023-02-14T14:05:32.728Z,27.92
2023-02-14T14:08:35.255Z,29.27
2023-02-14T14:11:36.735Z,30.10
2023-02-14T14:14:41.312Z,27.42
2023-02-14T14:17:45.937Z,28.48
2023-02-14T14:20:48.091Z,29.63
2023-02-14T14:24:23.093Z,28.00
2023-02-14T14:30:35.400Z,31.45
2023-02-14T14:33:37.739Z,30.77
2023-02-14T14:36:39.246Z,28.92
2023-02-14T14:39:40.861Z,30.23
2023-02-14T14:42:42.773Z,33.13
2023-02-14T14:45:49.040Z,34.85
2023-02-14T14:48:54.554Z,32.75
2023-02-14T14:51:57.343Z,32.00
2023-02-14T14:55:00.703Z,31.52
2023-02-14T14:58:05.008Z,32.95
2023-02-14T15:01:13.014Z,33.92
2023-02-14T15:04:14.543Z,34.97
2023-02-14T15:07:34.897Z,34.55
2023-02-14T15:10:36.891Z,32.90
2023-02-14T15:13:54.946Z,34.20
2023-02-14T15:17:10.453Z,34.15
2023-02-14T15:20:17.984Z,35.28
2023-02-14T15:23:24.048Z,34.00
2023-02-14T15:26:29.784Z,35.17
2023-02-14T15:29:32.998Z,33.55
2023-02-14T15:32:36.631Z,35.03
2023-02-14T15:35:43.950Z,34.50
2023-02-14T15:38:45.816Z,35.92
2023-02-14T15:41:47.363Z,34.55
2023-02-14T15:44:49.112Z,33.90
2023-02-14T15:47:53.928Z,34.53
2023-02-14T15:50:59.086Z,36.53
2023-02-14T15:54:03.635Z,35.40
2023-02-14T15:57:07.767Z,35.70
2023-02-14T16:00:17.959Z,36.65
2023-02-14T16:03:22.857Z,36.58
2023-02-14T16:06:31.723Z,37.05
2023-02-14T16:09:37.827Z,37.47
2023-02-14T16:12:40.164Z,36.33
2023-02-14T16:15:58.501Z,38.50
2023-02-14T16:19:00.076Z,37.58
2023-02-14T16:22:01.596Z,36.42
2023-02-14T16:25:03.078Z,38.70
2023-02-14T16:28:04.604Z,38.53
2023-02-14T16:31:11.121Z,36.40
2023-02-14T16:34:16.002Z,37.45
2023-02-14T16:37:33.159Z,38.25
2023-02-14T16:40:35.236Z,36.80
2023-02-14T16:43:36.763Z,36.25
2023-02-14T16:46:38.295Z,36.20
2023-02-14T16:49:40.936Z,35.50
2023-02-14T16:52:45.082Z,36.38
2023-02-14T16:55:46.640Z,35.50
2023-02-14T16:58:48.496Z,35.58
2023-02-14T17:01:50.050Z,34.65
2023-02-14T17:04:51.608Z,36.17
2023-02-14T17:07:53.146Z,35.25
2023-02-14T17:10:56.655Z,34.15
2023-02-14T17:13:58.163Z,34.08
2023-02-14T17:17:00.107Z,32.03
2023-02-14T17:20:02.343Z,31.75
2023-02-14T17:23:03.928Z,33.83
2023-02-14T17:26:06.298Z,30.13
2023-02-14T17:29:07.861Z,31.88
2023-02-14T17:32:13.765Z,32.10
2023-02-14T17:35:16.230Z,38.13
2023-02-14T17:38:18.611Z,46.60
2023-02-14T17:41:22.861Z,43.50
2023-02-14T17:44:24.437Z,39.30
2023-02-14T17:47:26.350Z,35.53
2023-02-14T17:50:28.043Z,32.33
2023-02-14T17:53:29.559Z,28.90
2023-02-14T17:56:31.076Z,30.67
2023-02-14T17:59:32.843Z,30.85
2023-02-14T18:02:34.396Z,41.95
2023-02-14T18:05:36.609Z,62.97
2023-02-14T18:08:49.192Z,49.60
2023-02-14T18:11:50.698Z,51.67
2023-02-14T18:14:53.284Z,53.75
2023-02-14T18:17:54.739Z,31.50
2023-02-14T18:20:57.821Z,29.48
2023-02-14T18:24:00.144Z,29.30
2023-02-14T18:27:02.884Z,28.83
2023-02-14T18:30:05.429Z,27.15
2023-02-14T18:33:06.882Z,25.80
2023-02-14T18:36:14.230Z,33.40
2023-02-14T18:39:15.892Z,31.83
2023-02-14T18:42:17.520Z,25.92
2023-02-14T18:45:18.988Z,27.60
2023-02-14T18:48:20.494Z,29.65
2023-02-14T18:51:27.595Z,27.95
2023-02-14T18:54:29.717Z,26.00
2023-02-14T18:57:33.439Z,23.08
2023-02-14T19:00:34.999Z,20.80
2023-02-14T19:03:36.632Z,20.45
2023-02-14T19:06:40.720Z,20.10
2023-02-14T19:12:45.336Z,21.80
2023-02-14T19:15:47.560Z,19.05
2023-02-14T19:18:49.921Z,17.83
2023-02-14T19:21:52.111Z,18.38
2023-02-14T19:24:53.814Z,19.05
2023-02-14T19:27:55.283Z,18.70
2023-02-14T19:30:59.307Z,18.25
2023-02-14T19:34:04.665Z,17.80
2023-02-14T19:37:06.404Z,19.27
2023-02-14T19:40:10.320Z,21.58
2023-02-14T19:43:11.848Z,22.92
2023-02-14T19:46:14.465Z,20.33
2023-02-14T19:49:19.219Z,19.75
2023-02-14T19:52:27.704Z,22.38
2023-02-14T19:55:29.277Z,22.02
2023-02-14T19:58:30.742Z,22.50
2023-02-14T20:01:41.377Z,20.23
2023-02-14T20:04:43.335Z,18.23
2023-02-14T20:07:44.981Z,16.90
2023-02-14T20:10:46.436Z,15.73
2023-02-14T20:13:47.979Z,16.30
2023-02-14T20:16:50.257Z,39.75
2023-02-14T20:19:52.833Z,27.17
2023-02-14T20:22:54.486Z,18.70
2023-02-14T20:25:56.157Z,17.52
2023-02-14T20:29:05.990Z,20.40
2023-02-14T20:32:07.476Z,23.38
2023-02-14T20:35:09.013Z,22.10
2023-02-14T20:38:10.681Z,20.40
2023-02-14T20:41:14.051Z,17.88
2023-02-14T20:44:19.820Z,18.08
2023-02-14T20:47:21.386Z,19.77
2023-02-14T20:50:23.072Z,19.95
2023-02-14T20:53:24.803Z,19.13
2023-02-14T20:56:26.480Z,18.50
2023-02-14T20:59:28.827Z,17.77
2023-02-14T21:02:30.459Z,17.73
2023-02-14T21:05:31.993Z,16.27
2023-02-14T21:08:33.691Z,16.80
2023-02-14T21:11:35.486Z,22.25
2023-02-14T21:14:38.200Z,26.45
2023-02-14T21:17:39.840Z,27.45
2023-02-14T21:20:41.328Z,28.13
2023-02-14T21:23:42.893Z,26.92
2023-02-14T21:26:45.147Z,28.50
2023-02-14T21:29:46.699Z,27.73
2023-02-14T21:32:48.333Z,30.30
2023-02-14T21:35:49.829Z,30.38
2023-02-14T21:38:51.979Z,31.80
2023-02-14T21:41:54.690Z,29.73
2023-02-14T21:45:14.855Z,40.25
2023-02-14T21:48:34.636Z,33.47
2023-02-14T21:51:36.239Z,42.45
2023-02-14T21:54:37.798Z,34.63
2023-02-14T21:57:39.444Z,48.05
2023-02-14T22:00:44.538Z,40.10
2023-02-14T22:03:46.148Z,42.15
2023-02-14T22:06:47.760Z,38.97
2023-02-14T22:09:49.683Z,36.83
2023-02-14T22:12:51.272Z,42.33
2023-02-14T22:15:52.819Z,41.17
2023-02-14T22:18:54.413Z,45.20
2023-02-14T22:21:55.895Z,40.58
2023-02-14T22:24:57.405Z,42.65
2023-02-14T22:27:59.045Z,44.05
2023-02-14T22:31:00.817Z,44.67
2023-02-14T22:34:04.880Z,37.75
2023-02-14T22:37:06.397Z,36.08
2023-02-14T22:40:08.478Z,31.90
2023-02-14T22:43:10.019Z,28.55
2023-02-14T22:46:17.640Z,28.55
2023-02-14T22:49:19.211Z,27.95
2023-02-14T22:52:20.731Z,24.55
2023-02-14T22:55:22.246Z,23.75
2023-02-14T22:58:23.865Z,24.15
2023-02-14T23:01:26.185Z,24.83
2023-02-14T23:04:29.789Z,23.95
2023-02-14T23:07:31.295Z,23.42
2023-02-14T23:10:33.708Z,24.25
2023-02-14T23:13:54.660Z,22.25
2023-02-14T23:17:14.832Z,21.80
2023-02-14T23:20:35.144Z,22.58
2023-02-14T23:23:36.671Z,20.80
2023-02-14T23:26:38.191Z,21.17
2023-02-14T23:29:39.869Z,20.90
2023-02-14T23:32:41.876Z,21.00
2023-02-14T23:35:43.644Z,23.13
2023-02-14T23:38:45.174Z,20.90
2023-02-14T23:41:49.920Z,20.42
2023-02-14T23:44:51.491Z,21.27
2023-02-14T23:47:52.956Z,22.70
2023-02-14T23:50:59.735Z,24.20
2023-02-14T23:54:01.541Z,22.63
2023-02-14T23:57:04.060Z,22.15
